sensor_id;sensor_type;location;lat;lon;timestamp;P1;durP1;ratioP1;P2;durP2;ratioP2
59824;SDS011;45703;50.898;6.054;2023-10-13T00:01:47;13.02;;;7.03;;
59824;SDS011;45703;50.898;6.054;2023-10-13T00:04:16;11.70;;;6.60;;
59824;SDS011;45703;50.898;6.054;2023-10-13T00:06:42;12.45;;;6.97;;
59824;SDS011;45703;50.898;6.054;2023-10-13T00:09:07;11.88;;;6.88;;
59824;SDS011;45703;50.898;6.054;2023-10-13T00:11:42;11.55;;;6.50;;
59824;SDS011;45703;50.898;6.054;2023-10-13T00:14:10;13.23;;;6.88;;
59824;SDS011;45703;50.898;6.054;2023-10-13T00:16:39;12.40;;;7.38;;
59824;SDS011;45703;50.898;6.054;2023-10-13T00:19:05;11.80;;;6.75;;
59824;SDS011;45703;50.898;6.054;2023-10-13T00:21:31;11.52;;;7.00;;
59824;SDS011;45703;50.898;6.054;2023-10-13T00:23:56;13.00;;;6.45;;
59824;SDS011;45703;50.898;6.054;2023-10-13T00:26:26;13.35;;;6.75;;
59824;SDS011;45703;50.898;6.054;2023-10-13T00:28:57;11.73;;;6.57;;
59824;SDS011;45703;50.898;6.054;2023-10-13T00:31:36;13.68;;;7.00;;
59824;SDS011;45703;50.898;6.054;2023-10-13T00:34:03;13.23;;;6.50;;
59824;SDS011;45703;50.898;6.054;2023-10-13T00:36:52;12.10;;;6.18;;
59824;SDS011;45703;50.898;6.054;2023-10-13T00:39:37;12.98;;;6.55;;
59824;SDS011;45703;50.898;6.054;2023-10-13T00:42:05;12.27;;;6.90;;
59824;SDS011;45703;50.898;6.054;2023-10-13T00:44:42;12.65;;;7.55;;
59824;SDS011;45703;50.898;6.054;2023-10-13T00:47:13;14.85;;;7.35;;
59824;SDS011;45703;50.898;6.054;2023-10-13T00:49:41;12.20;;;6.18;;
59824;SDS011;45703;50.898;6.054;2023-10-13T00:52:12;10.57;;;5.65;;
59824;SDS011;45703;50.898;6.054;2023-10-13T00:54:40;11.07;;;6.65;;
59824;SDS011;45703;50.898;6.054;2023-10-13T00:57:14;11.02;;;6.13;;
59824;SDS011;45703;50.898;6.054;2023-10-13T00:59:52;13.05;;;7.03;;
59824;SDS011;45703;50.898;6.054;2023-10-13T01:02:19;11.15;;;6.22;;
59824;SDS011;45703;50.898;6.054;2023-10-13T01:05:11;11.18;;;6.78;;
59824;SDS011;45703;50.898;6.054;2023-10-13T01:07:45;12.45;;;6.65;;
59824;SDS011;45703;50.898;6.054;2023-10-13T01:10:15;12.73;;;6.70;;
59824;SDS011;45703;50.898;6.054;2023-10-13T01:12:41;12.52;;;6.47;;
59824;SDS011;45703;50.898;6.054;2023-10-13T01:15:10;12.48;;;7.00;;
59824;SDS011;45703;50.898;6.054;2023-10-13T01:17:38;13.65;;;6.75;;
59824;SDS011;45703;50.898;6.054;2023-10-13T01:20:09;11.90;;;6.75;;
59824;SDS011;45703;50.898;6.054;2023-10-13T01:22:37;13.23;;;8.07;;
59824;SDS011;45703;50.898;6.054;2023-10-13T01:25:06;13.30;;;7.53;;
59824;SDS011;45703;50.898;6.054;2023-10-13T01:27:37;14.43;;;8.27;;
59824;SDS011;45703;50.898;6.054;2023-10-13T01:30:04;13.77;;;8.35;;
59824;SDS011;45703;50.898;6.054;2023-10-13T01:32:35;12.07;;;7.13;;
59824;SDS011;45703;50.898;6.054;2023-10-13T01:35:06;12.43;;;7.90;;
59824;SDS011;45703;50.898;6.054;2023-10-13T01:37:32;13.23;;;8.05;;
59824;SDS011;45703;50.898;6.054;2023-10-13T01:39:58;13.60;;;7.65;;
59824;SDS011;45703;50.898;6.054;2023-10-13T01:42:23;13.50;;;7.47;;
59824;SDS011;45703;50.898;6.054;2023-10-13T01:44:50;14.15;;;7.75;;
59824;SDS011;45703;50.898;6.054;2023-10-13T01:47:15;13.63;;;8.35;;
59824;SDS011;45703;50.898;6.054;2023-10-13T01:49:41;13.13;;;8.13;;
59824;SDS011;45703;50.898;6.054;2023-10-13T01:52:09;13.65;;;8.27;;
59824;SDS011;45703;50.898;6.054;2023-10-13T01:54:40;14.10;;;7.97;;
59824;SDS011;45703;50.898;6.054;2023-10-13T01:57:11;13.93;;;7.38;;
59824;SDS011;45703;50.898;6.054;2023-10-13T01:59:43;13.13;;;7.72;;
59824;SDS011;45703;50.898;6.054;2023-10-13T02:02:10;15.35;;;8.32;;
59824;SDS011;45703;50.898;6.054;2023-10-13T02:04:38;12.73;;;7.82;;
59824;SDS011;45703;50.898;6.054;2023-10-13T02:07:08;13.65;;;6.85;;
59824;SDS011;45703;50.898;6.054;2023-10-13T02:09:33;12.90;;;8.10;;
59824;SDS011;45703;50.898;6.054;2023-10-13T02:12:02;12.63;;;7.15;;
59824;SDS011;45703;50.898;6.054;2023-10-13T02:14:28;14.00;;;7.85;;
59824;SDS011;45703;50.898;6.054;2023-10-13T02:16:53;15.27;;;8.07;;
59824;SDS011;45703;50.898;6.054;2023-10-13T02:19:37;12.90;;;7.43;;
59824;SDS011;45703;50.898;6.054;2023-10-13T02:22:10;13.02;;;6.97;;
59824;SDS011;45703;50.898;6.054;2023-10-13T02:24:37;13.55;;;7.70;;
59824;SDS011;45703;50.898;6.054;2023-10-13T02:27:08;14.02;;;7.47;;
59824;SDS011;45703;50.898;6.054;2023-10-13T02:29:41;12.35;;;7.60;;
59824;SDS011;45703;50.898;6.054;2023-10-13T02:32:10;12.48;;;7.20;;
59824;SDS011;45703;50.898;6.054;2023-10-13T02:34:47;13.00;;;7.25;;
59824;SDS011;45703;50.898;6.054;2023-10-13T02:37:13;13.25;;;6.93;;
59824;SDS011;45703;50.898;6.054;2023-10-13T02:39:41;13.98;;;7.05;;
59824;SDS011;45703;50.898;6.054;2023-10-13T02:42:09;13.10;;;7.40;;
59824;SDS011;45703;50.898;6.054;2023-10-13T02:44:49;12.38;;;7.35;;
59824;SDS011;45703;50.898;6.054;2023-10-13T02:47:16;11.95;;;6.13;;
59824;SDS011;45703;50.898;6.054;2023-10-13T02:49:43;12.55;;;6.85;;
59824;SDS011;45703;50.898;6.054;2023-10-13T02:52:11;12.23;;;6.90;;
59824;SDS011;45703;50.898;6.054;2023-10-13T02:54:41;10.32;;;6.00;;
59824;SDS011;45703;50.898;6.054;2023-10-13T02:57:15;11.43;;;5.90;;
59824;SDS011;45703;50.898;6.054;2023-10-13T02:59:41;11.75;;;6.53;;
59824;SDS011;45703;50.898;6.054;2023-10-13T03:02:16;11.50;;;6.28;;
59824;SDS011;45703;50.898;6.054;2023-10-13T03:07:38;10.43;;;5.32;;
59824;SDS011;45703;50.898;6.054;2023-10-13T03:10:08;12.82;;;5.72;;
59824;SDS011;45703;50.898;6.054;2023-10-13T03:12:37;11.20;;;5.47;;
59824;SDS011;45703;50.898;6.054;2023-10-13T03:15:03;11.55;;;5.93;;
59824;SDS011;45703;50.898;6.054;2023-10-13T03:17:43;12.02;;;6.15;;
59824;SDS011;45703;50.898;6.054;2023-10-13T03:20:10;11.70;;;5.45;;
59824;SDS011;45703;50.898;6.054;2023-10-13T03:22:38;12.60;;;6.70;;
59824;SDS011;45703;50.898;6.054;2023-10-13T03:25:07;13.38;;;5.95;;
59824;SDS011;45703;50.898;6.054;2023-10-13T03:27:35;11.55;;;5.88;;
59824;SDS011;45703;50.898;6.054;2023-10-13T03:30:15;11.88;;;5.55;;
59824;SDS011;45703;50.898;6.054;2023-10-13T03:32:41;11.27;;;5.43;;
59824;SDS011;45703;50.898;6.054;2023-10-13T03:35:22;11.70;;;5.05;;
59824;SDS011;45703;50.898;6.054;2023-10-13T03:37:55;13.73;;;5.55;;
59824;SDS011;45703;50.898;6.054;2023-10-13T03:40:22;10.57;;;5.55;;
59824;SDS011;45703;50.898;6.054;2023-10-13T03:42:48;11.27;;;4.97;;
59824;SDS011;45703;50.898;6.054;2023-10-13T03:45:33;10.65;;;5.95;;
59824;SDS011;45703;50.898;6.054;2023-10-13T03:48:16;11.00;;;5.15;;
59824;SDS011;45703;50.898;6.054;2023-10-13T03:50:56;11.57;;;5.40;;
59824;SDS011;45703;50.898;6.054;2023-10-13T03:53:29;9.95;;;5.68;;
59824;SDS011;45703;50.898;6.054;2023-10-13T03:56:02;9.55;;;5.05;;
59824;SDS011;45703;50.898;6.054;2023-10-13T03:58:38;8.73;;;5.22;;
59824;SDS011;45703;50.898;6.054;2023-10-13T04:01:07;10.77;;;5.50;;
59824;SDS011;45703;50.898;6.054;2023-10-13T04:03:34;11.38;;;5.95;;
59824;SDS011;45703;50.898;6.054;2023-10-13T04:06:01;13.63;;;6.03;;
59824;SDS011;45703;50.898;6.054;2023-10-13T04:08:33;9.02;;;4.97;;
59824;SDS011;45703;50.898;6.054;2023-10-13T04:11:08;11.13;;;4.63;;
59824;SDS011;45703;50.898;6.054;2023-10-13T04:13:52;10.23;;;5.18;;
59824;SDS011;45703;50.898;6.054;2023-10-13T04:16:35;10.65;;;5.00;;
59824;SDS011;45703;50.898;6.054;2023-10-13T04:19:02;12.27;;;5.00;;
59824;SDS011;45703;50.898;6.054;2023-10-13T04:21:28;10.57;;;5.25;;
59824;SDS011;45703;50.898;6.054;2023-10-13T04:24:21;9.70;;;5.00;;
59824;SDS011;45703;50.898;6.054;2023-10-13T04:27:24;10.65;;;4.68;;
59824;SDS011;45703;50.898;6.054;2023-10-13T04:30:09;12.18;;;4.88;;
59824;SDS011;45703;50.898;6.054;2023-10-13T04:32:49;11.55;;;5.35;;
59824;SDS011;45703;50.898;6.054;2023-10-13T04:35:31;10.25;;;4.65;;
59824;SDS011;45703;50.898;6.054;2023-10-13T04:38:12;10.38;;;4.38;;
59824;SDS011;45703;50.898;6.054;2023-10-13T04:40:45;9.63;;;4.13;;
59824;SDS011;45703;50.898;6.054;2023-10-13T04:43:23;9.07;;;4.35;;
59824;SDS011;45703;50.898;6.054;2023-10-13T04:46:02;10.98;;;4.60;;
59824;SDS011;45703;50.898;6.054;2023-10-13T04:48:47;9.45;;;4.30;;
59824;SDS011;45703;50.898;6.054;2023-10-13T04:51:13;10.38;;;4.38;;
59824;SDS011;45703;50.898;6.054;2023-10-13T04:53:57;11.90;;;4.88;;
59824;SDS011;45703;50.898;6.054;2023-10-13T04:56:27;10.73;;;4.55;;
59824;SDS011;45703;50.898;6.054;2023-10-13T04:59:07;11.93;;;4.88;;
59824;SDS011;45703;50.898;6.054;2023-10-13T05:01:51;8.68;;;4.13;;
59824;SDS011;45703;50.898;6.054;2023-10-13T05:04:35;10.60;;;4.63;;
59824;SDS011;45703;50.898;6.054;2023-10-13T05:07:24;10.77;;;4.30;;
59824;SDS011;45703;50.898;6.054;2023-10-13T05:10:12;11.32;;;4.78;;
59824;SDS011;45703;50.898;6.054;2023-10-13T05:12:56;13.95;;;4.25;;
59824;SDS011;45703;50.898;6.054;2023-10-13T05:15:47;10.65;;;4.78;;
59824;SDS011;45703;50.898;6.054;2023-10-13T05:18:31;12.90;;;4.60;;
59824;SDS011;45703;50.898;6.054;2023-10-13T05:21:16;12.10;;;4.32;;
59824;SDS011;45703;50.898;6.054;2023-10-13T05:24:00;12.07;;;4.45;;
59824;SDS011;45703;50.898;6.054;2023-10-13T05:26:44;12.43;;;5.00;;
59824;SDS011;45703;50.898;6.054;2023-10-13T05:29:28;15.57;;;5.45;;
59824;SDS011;45703;50.898;6.054;2023-10-13T05:32:12;10.82;;;4.55;;
59824;SDS011;45703;50.898;6.054;2023-10-13T05:34:56;11.80;;;5.00;;
59824;SDS011;45703;50.898;6.054;2023-10-13T05:37:40;12.68;;;4.80;;
59824;SDS011;45703;50.898;6.054;2023-10-13T05:40:23;12.23;;;4.65;;
59824;SDS011;45703;50.898;6.054;2023-10-13T05:43:07;12.98;;;4.75;;
59824;SDS011;45703;50.898;6.054;2023-10-13T05:45:51;10.00;;;4.40;;
59824;SDS011;45703;50.898;6.054;2023-10-13T05:48:36;12.60;;;5.15;;
59824;SDS011;45703;50.898;6.054;2023-10-13T05:51:28;11.38;;;4.68;;
59824;SDS011;45703;50.898;6.054;2023-10-13T05:54:01;13.75;;;4.88;;
59824;SDS011;45703;50.898;6.054;2023-10-13T05:56:52;14.25;;;4.93;;
59824;SDS011;45703;50.898;6.054;2023-10-13T05:59:37;9.73;;;4.40;;
59824;SDS011;45703;50.898;6.054;2023-10-13T06:02:22;10.68;;;4.95;;
59824;SDS011;45703;50.898;6.054;2023-10-13T06:05:10;11.68;;;5.25;;
59824;SDS011;45703;50.898;6.054;2023-10-13T06:07:57;14.50;;;5.07;;
59824;SDS011;45703;50.898;6.054;2023-10-13T06:10:42;10.63;;;4.30;;
59824;SDS011;45703;50.898;6.054;2023-10-13T06:13:26;12.20;;;5.00;;
59824;SDS011;45703;50.898;6.054;2023-10-13T06:16:11;13.80;;;5.00;;
59824;SDS011;45703;50.898;6.054;2023-10-13T06:18:56;12.27;;;4.82;;
59824;SDS011;45703;50.898;6.054;2023-10-13T06:21:40;14.15;;;5.50;;
59824;SDS011;45703;50.898;6.054;2023-10-13T06:24:24;14.30;;;5.18;;
59824;SDS011;45703;50.898;6.054;2023-10-13T06:27:09;11.57;;;5.40;;
59824;SDS011;45703;50.898;6.054;2023-10-13T06:29:53;12.75;;;5.20;;
59824;SDS011;45703;50.898;6.054;2023-10-13T06:32:22;12.45;;;5.22;;
59824;SDS011;45703;50.898;6.054;2023-10-13T06:34:54;10.95;;;5.18;;
59824;SDS011;45703;50.898;6.054;2023-10-13T06:37:23;9.70;;;4.80;;
59824;SDS011;45703;50.898;6.054;2023-10-13T06:39:55;13.93;;;5.10;;
59824;SDS011;45703;50.898;6.054;2023-10-13T06:42:25;11.95;;;5.53;;
59824;SDS011;45703;50.898;6.054;2023-10-13T06:44:55;12.20;;;5.25;;
59824;SDS011;45703;50.898;6.054;2023-10-13T06:47:24;13.38;;;5.60;;
59824;SDS011;45703;50.898;6.054;2023-10-13T06:49:52;13.10;;;5.15;;
59824;SDS011;45703;50.898;6.054;2023-10-13T06:52:26;11.73;;;4.55;;
59824;SDS011;45703;50.898;6.054;2023-10-13T06:54:54;12.15;;;5.20;;
59824;SDS011;45703;50.898;6.054;2023-10-13T06:57:20;12.65;;;4.90;;
59824;SDS011;45703;50.898;6.054;2023-10-13T06:59:46;12.27;;;4.80;;
59824;SDS011;45703;50.898;6.054;2023-10-13T07:02:12;12.07;;;5.03;;
59824;SDS011;45703;50.898;6.054;2023-10-13T07:04:47;12.15;;;4.95;;
59824;SDS011;45703;50.898;6.054;2023-10-13T07:07:15;12.00;;;5.20;;
59824;SDS011;45703;50.898;6.054;2023-10-13T07:09:43;11.00;;;4.30;;
59824;SDS011;45703;50.898;6.054;2023-10-13T07:12:20;11.35;;;4.53;;
59824;SDS011;45703;50.898;6.054;2023-10-13T07:14:51;12.48;;;4.75;;
59824;SDS011;45703;50.898;6.054;2023-10-13T07:17:17;12.32;;;4.68;;
59824;SDS011;45703;50.898;6.054;2023-10-13T07:19:52;14.27;;;5.25;;
59824;SDS011;45703;50.898;6.054;2023-10-13T07:22:18;14.55;;;5.05;;
59824;SDS011;45703;50.898;6.054;2023-10-13T07:24:45;10.25;;;4.38;;
59824;SDS011;45703;50.898;6.054;2023-10-13T07:27:15;11.98;;;5.03;;
59824;SDS011;45703;50.898;6.054;2023-10-13T07:29:48;10.68;;;4.45;;
59824;SDS011;45703;50.898;6.054;2023-10-13T07:32:21;12.82;;;4.97;;
59824;SDS011;45703;50.898;6.054;2023-10-13T07:34:52;11.45;;;4.72;;
59824;SDS011;45703;50.898;6.054;2023-10-13T07:37:21;11.53;;;4.67;;
59824;SDS011;45703;50.898;6.054;2023-10-13T07:39:54;15.73;;;5.18;;
59824;SDS011;45703;50.898;6.054;2023-10-13T07:42:23;12.75;;;4.70;;
59824;SDS011;45703;50.898;6.054;2023-10-13T07:45:04;11.35;;;5.03;;
59824;SDS011;45703;50.898;6.054;2023-10-13T07:47:30;11.40;;;5.07;;
59824;SDS011;45703;50.898;6.054;2023-10-13T07:49:58;11.63;;;5.20;;
59824;SDS011;45703;50.898;6.054;2023-10-13T07:52:23;11.10;;;4.60;;
59824;SDS011;45703;50.898;6.054;2023-10-13T07:54:51;10.50;;;4.80;;
59824;SDS011;45703;50.898;6.054;2023-10-13T07:57:36;14.18;;;5.43;;
59824;SDS011;45703;50.898;6.054;2023-10-13T08:00:20;11.13;;;4.80;;
59824;SDS011;45703;50.898;6.054;2023-10-13T08:03:05;9.80;;;4.90;;
59824;SDS011;45703;50.898;6.054;2023-10-13T08:05:42;10.85;;;5.07;;
59824;SDS011;45703;50.898;6.054;2023-10-13T08:08:23;12.40;;;5.05;;
59824;SDS011;45703;50.898;6.054;2023-10-13T08:11:09;9.73;;;4.40;;
59824;SDS011;45703;50.898;6.054;2023-10-13T08:13:50;10.88;;;5.03;;
59824;SDS011;45703;50.898;6.054;2023-10-13T08:16:25;12.88;;;4.97;;
59824;SDS011;45703;50.898;6.054;2023-10-13T08:19:12;11.02;;;4.95;;
59824;SDS011;45703;50.898;6.054;2023-10-13T08:21:40;11.00;;;5.20;;
59824;SDS011;45703;50.898;6.054;2023-10-13T08:24:17;13.10;;;5.07;;
59824;SDS011;45703;50.898;6.054;2023-10-13T08:27:02;10.73;;;5.28;;
59824;SDS011;45703;50.898;6.054;2023-10-13T08:29:46;11.68;;;5.55;;
59824;SDS011;45703;50.898;6.054;2023-10-13T08:32:25;12.38;;;5.10;;
59824;SDS011;45703;50.898;6.054;2023-10-13T08:34:54;11.98;;;5.63;;
59824;SDS011;45703;50.898;6.054;2023-10-13T08:37:23;12.23;;;5.32;;
59824;SDS011;45703;50.898;6.054;2023-10-13T08:39:53;12.65;;;5.38;;
59824;SDS011;45703;50.898;6.054;2023-10-13T08:45:10;13.48;;;5.93;;
59824;SDS011;45703;50.898;6.054;2023-10-13T08:48:06;14.25;;;6.05;;
59824;SDS011;45703;50.898;6.054;2023-10-13T08:55:58;12.30;;;5.75;;
59824;SDS011;45703;50.898;6.054;2023-10-13T08:58:31;11.80;;;5.80;;
59824;SDS011;45703;50.898;6.054;2023-10-13T09:01:16;12.00;;;6.38;;
59824;SDS011;45703;50.898;6.054;2023-10-13T09:04:08;13.38;;;6.13;;
59824;SDS011;45703;50.898;6.054;2023-10-13T09:06:44;12.95;;;6.20;;
59824;SDS011;45703;50.898;6.054;2023-10-13T09:09:23;16.08;;;6.63;;
59824;SDS011;45703;50.898;6.054;2023-10-13T09:12:28;10.75;;;5.88;;
59824;SDS011;45703;50.898;6.054;2023-10-13T09:14:57;13.80;;;6.00;;
59824;SDS011;45703;50.898;6.054;2023-10-13T09:17:26;12.50;;;6.53;;
59824;SDS011;45703;50.898;6.054;2023-10-13T09:19:58;13.38;;;5.80;;
59824;SDS011;45703;50.898;6.054;2023-10-13T09:22:46;12.43;;;6.05;;
59824;SDS011;45703;50.898;6.054;2023-10-13T09:25:31;11.00;;;6.22;;
59824;SDS011;45703;50.898;6.054;2023-10-13T09:28:10;11.95;;;6.03;;
59824;SDS011;45703;50.898;6.054;2023-10-13T09:30:57;12.75;;;6.28;;
59824;SDS011;45703;50.898;6.054;2023-10-13T09:33:23;15.20;;;6.88;;
59824;SDS011;45703;50.898;6.054;2023-10-13T09:35:58;12.05;;;6.40;;
59824;SDS011;45703;50.898;6.054;2023-10-13T09:38:28;13.68;;;7.28;;
59824;SDS011;45703;50.898;6.054;2023-10-13T09:40:54;11.73;;;6.85;;
59824;SDS011;45703;50.898;6.054;2023-10-13T09:43:22;13.73;;;7.00;;
59824;SDS011;45703;50.898;6.054;2023-10-13T09:45:50;10.95;;;7.10;;
59824;SDS011;45703;50.898;6.054;2023-10-13T09:48:37;11.27;;;6.75;;
59824;SDS011;45703;50.898;6.054;2023-10-13T09:51:09;13.05;;;7.25;;
59824;SDS011;45703;50.898;6.054;2023-10-13T09:53:38;13.38;;;7.40;;
59824;SDS011;45703;50.898;6.054;2023-10-13T09:56:08;11.70;;;6.55;;
59824;SDS011;45703;50.898;6.054;2023-10-13T09:58:51;12.68;;;6.53;;
59824;SDS011;45703;50.898;6.054;2023-10-13T10:01:24;12.85;;;6.63;;
59824;SDS011;45703;50.898;6.054;2023-10-13T10:04:08;14.70;;;6.45;;
59824;SDS011;45703;50.898;6.054;2023-10-13T10:06:54;10.63;;;6.30;;
59824;SDS011;45703;50.898;6.054;2023-10-13T10:09:28;16.33;;;7.88;;
59824;SDS011;45703;50.898;6.054;2023-10-13T10:17:55;14.23;;;6.95;;
59824;SDS011;45703;50.898;6.054;2023-10-13T10:21:02;11.68;;;6.60;;
59824;SDS011;45703;50.898;6.054;2023-10-13T10:23:26;10.90;;;6.30;;
59824;SDS011;45703;50.898;6.054;2023-10-13T10:25:54;13.55;;;6.38;;
59824;SDS011;45703;50.898;6.054;2023-10-13T10:28:38;13.82;;;6.82;;
59824;SDS011;45703;50.898;6.054;2023-10-13T10:31:07;12.30;;;5.95;;
59824;SDS011;45703;50.898;6.054;2023-10-13T10:33:58;12.15;;;6.00;;
59824;SDS011;45703;50.898;6.054;2023-10-13T10:36:30;13.52;;;6.38;;
59824;SDS011;45703;50.898;6.054;2023-10-13T10:38:56;13.00;;;5.75;;
59824;SDS011;45703;50.898;6.054;2023-10-13T10:41:29;14.10;;;5.85;;
59824;SDS011;45703;50.898;6.054;2023-10-13T10:44:11;13.15;;;5.47;;
59824;SDS011;45703;50.898;6.054;2023-10-13T10:46:55;14.43;;;5.93;;
59824;SDS011;45703;50.898;6.054;2023-10-13T10:49:26;14.18;;;5.65;;
59824;SDS011;45703;50.898;6.054;2023-10-13T10:51:58;11.45;;;5.57;;
59824;SDS011;45703;50.898;6.054;2023-10-13T10:54:31;10.77;;;5.35;;
59824;SDS011;45703;50.898;6.054;2023-10-13T10:57:00;13.52;;;5.88;;
59824;SDS011;45703;50.898;6.054;2023-10-13T10:59:52;14.25;;;5.35;;
59824;SDS011;45703;50.898;6.054;2023-10-13T11:02:36;13.65;;;5.93;;
59824;SDS011;45703;50.898;6.054;2023-10-13T11:05:03;15.55;;;5.80;;
59824;SDS011;45703;50.898;6.054;2023-10-13T11:07:31;15.55;;;6.03;;
59824;SDS011;45703;50.898;6.054;2023-10-13T11:09:56;11.52;;;5.40;;
59824;SDS011;45703;50.898;6.054;2023-10-13T11:12:36;14.63;;;5.38;;
59824;SDS011;45703;50.898;6.054;2023-10-13T11:15:09;13.23;;;4.85;;
59824;SDS011;45703;50.898;6.054;2023-10-13T11:17:50;11.45;;;5.45;;
59824;SDS011;45703;50.898;6.054;2023-10-13T11:20:19;16.70;;;5.28;;
59824;SDS011;45703;50.898;6.054;2023-10-13T11:22:59;14.10;;;5.60;;
59824;SDS011;45703;50.898;6.054;2023-10-13T11:27:55;16.65;;;5.10;;
59824;SDS011;45703;50.898;6.054;2023-10-13T11:30:22;13.45;;;4.95;;
59824;SDS011;45703;50.898;6.054;2023-10-13T11:35:30;13.65;;;4.97;;
59824;SDS011;45703;50.898;6.054;2023-10-13T11:38:18;12.23;;;4.80;;
59824;SDS011;45703;50.898;6.054;2023-10-13T11:40:55;15.57;;;5.45;;
59824;SDS011;45703;50.898;6.054;2023-10-13T11:43:31;12.75;;;5.10;;
59824;SDS011;45703;50.898;6.054;2023-10-13T11:46:18;11.95;;;4.93;;
59824;SDS011;45703;50.898;6.054;2023-10-13T11:49:00;13.02;;;5.53;;
59824;SDS011;45703;50.898;6.054;2023-10-13T11:53:57;13.85;;;4.90;;
59824;SDS011;45703;50.898;6.054;2023-10-13T11:56:23;14.20;;;5.38;;
59824;SDS011;45703;50.898;6.054;2023-10-13T11:58:49;14.88;;;5.35;;
59824;SDS011;45703;50.898;6.054;2023-10-13T12:01:16;15.15;;;5.03;;
59824;SDS011;45703;50.898;6.054;2023-10-13T12:03:48;15.63;;;5.43;;
59824;SDS011;45703;50.898;6.054;2023-10-13T12:06:33;15.38;;;5.38;;
59824;SDS011;45703;50.898;6.054;2023-10-13T12:09:03;15.82;;;5.03;;
59824;SDS011;45703;50.898;6.054;2023-10-13T12:11:55;14.93;;;4.65;;
59824;SDS011;45703;50.898;6.054;2023-10-13T12:14:25;10.75;;;4.75;;
59824;SDS011;45703;50.898;6.054;2023-10-13T12:16:55;12.27;;;4.82;;
59824;SDS011;45703;50.898;6.054;2023-10-13T12:19:24;18.75;;;5.15;;
59824;SDS011;45703;50.898;6.054;2023-10-13T12:21:55;15.40;;;4.80;;
59824;SDS011;45703;50.898;6.054;2023-10-13T12:24:21;18.50;;;5.30;;
59824;SDS011;45703;50.898;6.054;2023-10-13T12:27:01;14.88;;;5.53;;
59824;SDS011;45703;50.898;6.054;2023-10-13T12:29:27;14.50;;;4.68;;
59824;SDS011;45703;50.898;6.054;2023-10-13T12:31:57;13.77;;;5.18;;
59824;SDS011;45703;50.898;6.054;2023-10-13T12:34:39;16.48;;;5.15;;
59824;SDS011;45703;50.898;6.054;2023-10-13T12:37:24;16.60;;;4.95;;
59824;SDS011;45703;50.898;6.054;2023-10-13T12:40:06;12.48;;;4.60;;
59824;SDS011;45703;50.898;6.054;2023-10-13T12:42:50;14.88;;;5.55;;
59824;SDS011;45703;50.898;6.054;2023-10-13T12:45:38;15.80;;;5.65;;
59824;SDS011;45703;50.898;6.054;2023-10-13T12:48:23;13.98;;;5.00;;
59824;SDS011;45703;50.898;6.054;2023-10-13T12:51:07;13.73;;;5.43;;
59824;SDS011;45703;50.898;6.054;2023-10-13T12:53:44;14.75;;;5.35;;
59824;SDS011;45703;50.898;6.054;2023-10-13T12:56:10;13.90;;;5.13;;
59824;SDS011;45703;50.898;6.054;2023-10-13T12:58:36;11.80;;;4.82;;
59824;SDS011;45703;50.898;6.054;2023-10-13T13:01:02;11.40;;;4.57;;
59824;SDS011;45703;50.898;6.054;2023-10-13T13:03:33;15.65;;;5.85;;
59824;SDS011;45703;50.898;6.054;2023-10-13T13:05:59;18.23;;;5.07;;
59824;SDS011;45703;50.898;6.054;2023-10-13T13:08:32;15.43;;;5.47;;
59824;SDS011;45703;50.898;6.054;2023-10-13T13:11:00;14.38;;;5.30;;
59824;SDS011;45703;50.898;6.054;2023-10-13T13:13:26;15.85;;;5.38;;
59824;SDS011;45703;50.898;6.054;2023-10-13T13:15:52;14.30;;;5.20;;
59824;SDS011;45703;50.898;6.054;2023-10-13T13:18:18;15.82;;;5.20;;
59824;SDS011;45703;50.898;6.054;2023-10-13T13:20:44;13.85;;;5.25;;
59824;SDS011;45703;50.898;6.054;2023-10-13T13:23:20;14.98;;;5.30;;
59824;SDS011;45703;50.898;6.054;2023-10-13T13:25:47;14.90;;;5.55;;
59824;SDS011;45703;50.898;6.054;2023-10-13T13:28:13;15.63;;;5.05;;
59824;SDS011;45703;50.898;6.054;2023-10-13T13:30:43;13.93;;;5.53;;
59824;SDS011;45703;50.898;6.054;2023-10-13T13:33:09;16.70;;;5.85;;
59824;SDS011;45703;50.898;6.054;2023-10-13T13:35:39;11.95;;;5.60;;
59824;SDS011;45703;50.898;6.054;2023-10-13T13:38:08;11.02;;;4.80;;
59824;SDS011;45703;50.898;6.054;2023-10-13T13:41:03;15.57;;;5.13;;
59824;SDS011;45703;50.898;6.054;2023-10-13T13:43:34;10.90;;;5.60;;
59824;SDS011;45703;50.898;6.054;2023-10-13T13:46:06;13.43;;;5.05;;
59824;SDS011;45703;50.898;6.054;2023-10-13T13:48:35;15.00;;;5.40;;
59824;SDS011;45703;50.898;6.054;2023-10-13T13:51:05;10.63;;;4.95;;
59824;SDS011;45703;50.898;6.054;2023-10-13T13:53:39;14.50;;;5.35;;
59824;SDS011;45703;50.898;6.054;2023-10-13T13:56:10;13.45;;;4.88;;
59824;SDS011;45703;50.898;6.054;2023-10-13T13:58:35;15.27;;;5.60;;
59824;SDS011;45703;50.898;6.054;2023-10-13T14:01:03;12.25;;;5.05;;
59824;SDS011;45703;50.898;6.054;2023-10-13T14:03:39;10.00;;;4.50;;
59824;SDS011;45703;50.898;6.054;2023-10-13T14:06:25;13.85;;;5.00;;
59824;SDS011;45703;50.898;6.054;2023-10-13T14:08:54;11.98;;;5.25;;
59824;SDS011;45703;50.898;6.054;2023-10-13T14:11:21;11.80;;;4.70;;
59824;SDS011;45703;50.898;6.054;2023-10-13T14:14:12;15.15;;;5.55;;
59824;SDS011;45703;50.898;6.054;2023-10-13T14:16:42;12.75;;;4.63;;
59824;SDS011;45703;50.898;6.054;2023-10-13T14:19:12;12.32;;;5.10;;
59824;SDS011;45703;50.898;6.054;2023-10-13T14:21:44;11.40;;;5.13;;
59824;SDS011;45703;50.898;6.054;2023-10-13T14:24:15;11.95;;;5.13;;
59824;SDS011;45703;50.898;6.054;2023-10-13T14:26:43;13.20;;;5.30;;
59824;SDS011;45703;50.898;6.054;2023-10-13T14:29:09;14.13;;;5.28;;
59824;SDS011;45703;50.898;6.054;2023-10-13T14:31:39;11.10;;;5.22;;
59824;SDS011;45703;50.898;6.054;2023-10-13T14:34:06;9.88;;;4.82;;
59824;SDS011;45703;50.898;6.054;2023-10-13T14:36:32;12.38;;;5.00;;
59824;SDS011;45703;50.898;6.054;2023-10-13T14:39:01;13.32;;;4.97;;
59824;SDS011;45703;50.898;6.054;2023-10-13T14:41:27;10.32;;;4.65;;
59824;SDS011;45703;50.898;6.054;2023-10-13T14:43:54;13.60;;;5.45;;
59824;SDS011;45703;50.898;6.054;2023-10-13T14:46:25;11.13;;;5.40;;
59824;SDS011;45703;50.898;6.054;2023-10-13T14:48:54;11.30;;;5.32;;
59824;SDS011;45703;50.898;6.054;2023-10-13T14:51:19;11.23;;;4.60;;
59824;SDS011;45703;50.898;6.054;2023-10-13T14:53:46;15.63;;;5.13;;
59824;SDS011;45703;50.898;6.054;2023-10-13T14:56:16;10.70;;;5.10;;
59824;SDS011;45703;50.898;6.054;2023-10-13T14:58:42;12.60;;;5.53;;
59824;SDS011;45703;50.898;6.054;2023-10-13T15:03:45;10.10;;;5.10;;
59824;SDS011;45703;50.898;6.054;2023-10-13T15:06:18;12.55;;;4.88;;
59824;SDS011;45703;50.898;6.054;2023-10-13T15:08:53;11.45;;;4.93;;
59824;SDS011;45703;50.898;6.054;2023-10-13T15:11:20;11.43;;;4.88;;
59824;SDS011;45703;50.898;6.054;2023-10-13T15:13:46;11.90;;;4.95;;
59824;SDS011;45703;50.898;6.054;2023-10-13T15:16:19;12.13;;;5.43;;
59824;SDS011;45703;50.898;6.054;2023-10-13T15:18:47;12.63;;;4.78;;
59824;SDS011;45703;50.898;6.054;2023-10-13T15:21:22;10.85;;;4.47;;
59824;SDS011;45703;50.898;6.054;2023-10-13T15:23:55;10.88;;;4.38;;
59824;SDS011;45703;50.898;6.054;2023-10-13T15:26:25;11.07;;;4.63;;
59824;SDS011;45703;50.898;6.054;2023-10-13T15:28:50;14.02;;;4.85;;
59824;SDS011;45703;50.898;6.054;2023-10-13T15:31:20;12.15;;;4.65;;
59824;SDS011;45703;50.898;6.054;2023-10-13T15:34:12;11.52;;;4.75;;
59824;SDS011;45703;50.898;6.054;2023-10-13T15:36:41;10.95;;;4.70;;
59824;SDS011;45703;50.898;6.054;2023-10-13T15:39:08;11.20;;;4.90;;
59824;SDS011;45703;50.898;6.054;2023-10-13T15:41:35;10.40;;;4.53;;
59824;SDS011;45703;50.898;6.054;2023-10-13T15:44:03;11.73;;;5.13;;